Nordic Zenith — A8WZ7 — position and weather

sailwx.info

Track history (hours):
 
Tides and Currents Weather Stations Pressure Air Temp Water Temp Dewpoint Dewpoint Depression Visibility Wind Speed Wind Dir Waves Ship Positions

Nordic Zenith

Last reported at 2017-Dec-27 02:10 UTC. Time now 2018-Jan-20 15:32 UTC.
Position N 01°15' E 103°24'.
Warning: this ship's position is 24 days out of date.

Length 274 m; draft 9.2 m.

Type: Tanker. MMSI: 636014869.

Date/timePositionNaut miles runAvg speedWind from/ knotsBaromVisibWave heightAir tempDewpointWater temp
2017-Dec-27 02:10N 01°15' E 103°24'310.9
2017-Dec-27 01:55N 01°14' E 103°26'510.9
2017-Dec-27 01:29N 01°13' E 103°31'510.7
2017-Dec-27 01:00N 01°12' E 103°36'5 9.6
2017-Dec-27 00:30N 01°10' E 103°41'5 9.1
2017-Dec-27 00:00N 01°09' E 103°45'611.8
2017-Dec-26 23:30N 01°11' E 103°50'611.3
2017-Dec-26 23:00N 01°14' E 103°55'510.7
2017-Dec-26 22:30N 01°16' E 104°00'4 1.5
2017-Dec-26 19:49N 01°18' E 104°04'0 0.1
2017-Dec-26 18:31N 01°18' E 104°04'0 0.0
2017-Dec-26 18:28N 01°18' E 104°04'0 0.0
2017-Dec-26 17:10N 01°18' E 104°04'0 0.3
2017-Dec-26 16:55N 01°18' E 104°04'0 0.2
2017-Dec-26 16:13N 01°18' E 104°04'0 0.2
2017-Dec-26 15:49N 01°18' E 104°04'0 0.0
2017-Dec-26 15:28N 01°18' E 104°04'0 0.0
2017-Dec-26 14:43N 01°18' E 104°04'0 0.0
2017-Dec-26 13:34N 01°18' E 104°04'0 0.0
2017-Dec-26 13:10N 01°18' E 104°04'0 0.0
2017-Dec-26 10:28N 01°18' E 104°04'0 0.1
2017-Dec-26 09:43N 01°18' E 104°04'0 0.1
2017-Dec-26 06:22N 01°18' E 104°04'0 0.0
2017-Dec-26 05:13N 01°18' E 104°04'0 0.0
2017-Dec-26 04:49N 01°18' E 104°04'0 0.0
2017-Dec-26 04:28N 01°18' E 104°04'0 0.0
2017-Dec-26 03:58N 01°18' E 104°04'0 0.0
2017-Dec-26 03:28N 01°18' E 104°04'0 0.0
2017-Dec-26 02:58N 01°18' E 104°04'0 0.0
2017-Dec-26 02:22N 01°18' E 104°04'0 0.0
2017-Dec-25 22:31N 01°18' E 104°04'0 0.1
2017-Dec-25 22:30N 01°18' E 104°04'1 2.5
2017-Dec-25 21:55N 01°18' E 104°05'2 4.0
2017-Dec-25 21:30N 01°18' E 104°07'3 5.1
2017-Dec-25 20:57N 01°17' E 104°09'  
2017-Dec-17 02:29N 23°48' E 122°18'  
Track history (hours):
 
Tides and Currents Weather Stations Pressure Air Temp Water Temp Dewpoint Dewpoint Depression Visibility Wind Speed Wind Dir Waves Ship Positions

Nordic Zenith

Last reported at 2017-Dec-27 02:10 UTC. Time now 2018-Jan-20 15:32 UTC.
Position N 01°15' E 103°24'.
Warning: this ship's position is 24 days out of date.

Length 274 m; draft 9.2 m.

Type: Tanker. MMSI: 636014869.

Date/timePositionNaut miles runAvg speedWind from/ knotsBaromVisibWave heightAir tempDewpointWater temp
2017-Dec-27 02:10N 01°15' E 103°24'310.9
2017-Dec-27 01:55N 01°14' E 103°26'510.9
2017-Dec-27 01:29N 01°13' E 103°31'510.7
2017-Dec-27 01:00N 01°12' E 103°36'5 9.6
2017-Dec-27 00:30N 01°10' E 103°41'5 9.1
2017-Dec-27 00:00N 01°09' E 103°45'611.8
2017-Dec-26 23:30N 01°11' E 103°50'611.3
2017-Dec-26 23:00N 01°14' E 103°55'510.7
2017-Dec-26 22:30N 01°16' E 104°00'4 1.5
2017-Dec-26 19:49N 01°18' E 104°04'0 0.1
2017-Dec-26 18:31N 01°18' E 104°04'0 0.0
2017-Dec-26 18:28N 01°18' E 104°04'0 0.0
2017-Dec-26 17:10N 01°18' E 104°04'0 0.3
2017-Dec-26 16:55N 01°18' E 104°04'0 0.2
2017-Dec-26 16:13N 01°18' E 104°04'0 0.2
2017-Dec-26 15:49N 01°18' E 104°04'0 0.0
2017-Dec-26 15:28N 01°18' E 104°04'0 0.0
2017-Dec-26 14:43N 01°18' E 104°04'0 0.0
2017-Dec-26 13:34N 01°18' E 104°04'0 0.0
2017-Dec-26 13:10N 01°18' E 104°04'0 0.0
2017-Dec-26 10:28N 01°18' E 104°04'0 0.1
2017-Dec-26 09:43N 01°18' E 104°04'0 0.1
2017-Dec-26 06:22N 01°18' E 104°04'0 0.0
2017-Dec-26 05:13N 01°18' E 104°04'0 0.0
2017-Dec-26 04:49N 01°18' E 104°04'0 0.0
2017-Dec-26 04:28N 01°18' E 104°04'0 0.0
2017-Dec-26 03:58N 01°18' E 104°04'0 0.0
2017-Dec-26 03:28N 01°18' E 104°04'0 0.0
2017-Dec-26 02:58N 01°18' E 104°04'0 0.0
2017-Dec-26 02:22N 01°18' E 104°04'0 0.0
2017-Dec-25 22:31N 01°18' E 104°04'0 0.1
2017-Dec-25 22:30N 01°18' E 104°04'1 2.5
2017-Dec-25 21:55N 01°18' E 104°05'2 4.0
2017-Dec-25 21:30N 01°18' E 104°07'3 5.1
2017-Dec-25 20:57N 01°17' E 104°09'  
2017-Dec-17 02:29N 23°48' E 122°18'  

Dump ship's entire track history